createdAt,value
2019-02-17T00:01:26.960Z,60.83
2019-02-17T00:03:56.311Z,65.63
2019-02-17T00:06:25.596Z,70.53
2019-02-17T00:08:56.709Z,93.73
2019-02-17T00:11:26.289Z,94.87
2019-02-17T00:13:55.627Z,101.87
2019-02-17T00:16:24.926Z,91.53
2019-02-17T00:18:54.290Z,92.30
2019-02-17T00:21:23.737Z,93.43
2019-02-17T00:23:53.367Z,105.43
2019-02-17T00:26:25.022Z,100.13
2019-02-17T00:28:59.508Z,92.07
2019-02-17T00:31:28.397Z,100.07
2019-02-17T00:33:57.694Z,94.10
2019-02-17T00:36:30.062Z,103.73
2019-02-17T00:38:59.404Z,78.10
2019-02-17T00:41:28.748Z,78.90
2019-02-17T00:43:58.390Z,74.57
2019-02-17T00:46:29.642Z,67.23
2019-02-17T00:49:01.194Z,65.90
2019-02-17T00:51:33.711Z,75.23
2019-02-17T00:54:03.054Z,66.70
2019-02-17T00:56:33.376Z,65.33
2019-02-17T00:59:10.041Z,63.00
2019-02-17T01:01:39.320Z,61.33
2019-02-17T01:04:11.211Z,63.53
2019-02-17T01:06:43.300Z,55.80
2019-02-17T01:09:12.584Z,55.07
2019-02-17T01:11:41.885Z,58.57
2019-02-17T01:14:11.867Z,54.27
2019-02-17T01:16:41.461Z,55.53
2019-02-17T01:19:10.713Z,57.43
2019-02-17T01:21:40.307Z,56.90
2019-02-17T01:24:09.856Z,58.90
2019-02-17T01:26:40.501Z,51.33
2019-02-17T01:29:19.772Z,53.30
2019-02-17T01:31:41.165Z,54.43
2019-02-17T01:34:11.351Z,53.50
2019-02-17T01:36:40.658Z,49.53
2019-02-17T01:39:10.278Z,51.73
2019-02-17T01:41:39.554Z,53.97
2019-02-17T01:44:09.220Z,51.50
2019-02-17T01:46:38.753Z,50.57
2019-02-17T01:49:08.068Z,49.07
2019-02-17T01:51:37.694Z,58.50
2019-02-17T01:54:07.989Z,55.17
2019-02-17T01:56:37.228Z,55.53
2019-02-17T01:59:06.776Z,52.63
2019-02-17T02:01:36.098Z,47.43
2019-02-17T02:04:07.130Z,48.30
2019-02-17T02:06:36.525Z,53.90
2019-02-17T02:09:10.413Z,53.03
2019-02-17T02:11:39.762Z,51.63
2019-02-17T02:14:09.453Z,48.50
2019-02-17T02:16:38.700Z,49.33
2019-02-17T02:19:08.286Z,52.70
2019-02-17T02:21:37.618Z,53.13
2019-02-17T02:24:07.181Z,51.90
2019-02-17T02:26:36.480Z,50.60
2019-02-17T02:29:06.157Z,49.87
2019-02-17T02:31:35.420Z,51.50
2019-02-17T02:34:04.956Z,54.63
2019-02-17T02:36:35.121Z,57.60
2019-02-17T02:39:06.931Z,51.53
2019-02-17T02:41:36.194Z,57.40
2019-02-17T02:44:05.825Z,52.50
2019-02-17T02:46:35.077Z,49.47
2019-02-17T02:49:04.374Z,53.13
2019-02-17T02:51:33.913Z,54.30
2019-02-17T02:54:03.188Z,50.13
2019-02-17T02:56:32.457Z,58.10
2019-02-17T02:59:02.854Z,62.00
2019-02-17T03:01:32.745Z,54.70
2019-02-17T03:04:02.392Z,56.43
2019-02-17T03:07:03.144Z,59.60
2019-02-17T03:09:33.026Z,57.90
2019-02-17T03:12:02.308Z,59.60
2019-02-17T03:14:31.625Z,54.53
2019-02-17T03:17:01.252Z,57.03
2019-02-17T03:19:30.591Z,54.33
2019-02-17T03:21:59.866Z,52.37
2019-02-17T03:24:29.159Z,49.13
2019-02-17T03:26:58.420Z,55.47
2019-02-17T03:29:27.905Z,57.13
2019-02-17T03:32:00.013Z,48.70
2019-02-17T03:34:29.611Z,50.47
2019-02-17T03:36:58.966Z,50.43
2019-02-17T03:39:31.372Z,51.97
2019-02-17T03:42:00.711Z,49.60
2019-02-17T03:44:30.052Z,53.93
2019-02-17T03:46:59.342Z,48.23
2019-02-17T03:49:28.642Z,49.33
2019-02-17T03:51:58.217Z,47.53
2019-02-17T03:54:27.608Z,57.27
2019-02-17T03:56:56.866Z,50.20
2019-02-17T03:59:26.166Z,56.40
2019-02-17T04:01:57.343Z,49.57
2019-02-17T04:04:26.639Z,49.47
2019-02-17T04:06:55.910Z,46.97
2019-02-17T04:09:25.581Z,46.20
2019-02-17T04:11:58.227Z,42.97
2019-02-17T04:14:27.852Z,43.47
2019-02-17T04:16:57.449Z,53.63
2019-02-17T04:19:26.700Z,45.40
2019-02-17T04:21:58.788Z,47.87
2019-02-17T04:24:28.233Z,48.93
2019-02-17T04:26:57.552Z,45.40
2019-02-17T04:29:26.848Z,46.00
2019-02-17T04:31:59.249Z,48.97
2019-02-17T04:34:28.611Z,46.30
2019-02-17T04:36:57.901Z,46.30
2019-02-17T04:39:27.452Z,46.80
2019-02-17T04:41:58.076Z,47.57
2019-02-17T04:44:27.441Z,43.47
2019-02-17T04:46:56.897Z,48.73
2019-02-17T04:49:26.173Z,45.30
2019-02-17T04:51:57.772Z,47.83
2019-02-17T04:54:27.020Z,44.60
2019-02-17T04:56:56.345Z,45.23
2019-02-17T04:59:26.247Z,48.10
2019-02-17T05:01:58.397Z,46.53
2019-02-17T05:04:27.833Z,50.13
2019-02-17T05:06:57.410Z,48.37
2019-02-17T05:09:27.011Z,46.63
2019-02-17T05:11:58.351Z,42.30
2019-02-17T05:14:28.103Z,44.53
2019-02-17T05:16:57.710Z,44.33
2019-02-17T05:19:27.001Z,45.70
2019-02-17T05:21:59.279Z,47.10
2019-02-17T05:24:28.960Z,44.50
2019-02-17T05:26:58.244Z,40.03
2019-02-17T05:29:27.656Z,41.57
2019-02-17T05:32:00.036Z,41.77
2019-02-17T05:34:29.854Z,40.47
2019-02-17T05:36:59.142Z,43.87
2019-02-17T05:39:28.708Z,42.53
2019-02-17T05:42:00.118Z,44.50
2019-02-17T05:44:30.702Z,42.23
2019-02-17T05:47:00.025Z,49.43
2019-02-17T05:49:29.344Z,47.50
2019-02-17T05:52:01.351Z,44.40
2019-02-17T05:54:30.709Z,41.93
2019-02-17T05:57:00.254Z,52.07
2019-02-17T05:59:29.801Z,40.27
2019-02-17T06:02:02.568Z,43.97
2019-02-17T06:04:31.977Z,45.83
2019-02-17T06:07:01.270Z,43.60
2019-02-17T06:09:30.545Z,46.33
2019-02-17T06:12:00.113Z,48.07
2019-02-17T06:14:29.390Z,39.83
2019-02-17T06:16:58.681Z,44.37
2019-02-17T06:19:27.939Z,48.90
2019-02-17T06:21:58.406Z,45.23
2019-02-17T06:24:27.708Z,45.27
2019-02-17T06:26:57.248Z,38.57
2019-02-17T06:29:26.580Z,40.63
2019-02-17T06:31:58.797Z,44.33
2019-02-17T06:34:28.438Z,43.43
2019-02-17T06:36:57.791Z,37.97
2019-02-17T06:39:27.032Z,42.93
2019-02-17T06:41:57.667Z,44.13
2019-02-17T06:44:27.585Z,41.57
2019-02-17T06:46:59.885Z,51.73
2019-02-17T06:49:29.188Z,45.07
2019-02-17T06:52:01.870Z,43.27
2019-02-17T06:54:31.784Z,45.33
2019-02-17T06:57:23.517Z,45.10
2019-02-17T07:00:08.436Z,43.27
2019-02-17T07:02:37.771Z,45.47
2019-02-17T07:05:31.391Z,46.73
2019-02-17T07:08:00.773Z,42.90
2019-02-17T07:10:30.076Z,44.13
2019-02-17T07:12:59.346Z,40.63
2019-02-17T07:15:28.754Z,43.50
2019-02-17T07:17:59.501Z,41.23
2019-02-17T07:20:28.697Z,43.60
2019-02-17T07:22:57.986Z,41.80
2019-02-17T07:25:30.094Z,45.93
2019-02-17T07:28:00.780Z,45.50
2019-02-17T07:30:30.109Z,41.60
2019-02-17T07:32:59.488Z,43.73
2019-02-17T07:35:28.764Z,41.43
2019-02-17T07:38:00.860Z,42.47
2019-02-17T07:40:30.173Z,40.17
2019-02-17T07:42:59.459Z,40.50
2019-02-17T07:45:28.749Z,45.40
2019-02-17T07:48:00.988Z,41.60
2019-02-17T07:50:30.336Z,40.63
2019-02-17T07:52:59.647Z,44.87
2019-02-17T07:55:29.046Z,40.10
2019-02-17T07:58:01.456Z,40.90
2019-02-17T08:00:30.791Z,41.50
2019-02-17T08:03:00.101Z,44.47
2019-02-17T08:05:29.461Z,48.20
2019-02-17T08:08:00.874Z,44.50
2019-02-17T08:10:30.387Z,43.90
2019-02-17T08:13:02.206Z,45.40
2019-02-17T08:15:31.719Z,39.27
2019-02-17T08:18:03.969Z,40.23
2019-02-17T08:20:33.709Z,42.37
2019-02-17T08:23:03.033Z,41.70
2019-02-17T08:25:32.334Z,40.67
2019-02-17T08:28:01.712Z,42.73
2019-02-17T08:30:33.881Z,40.07
2019-02-17T08:33:03.629Z,46.03
2019-02-17T08:35:33.162Z,38.97
2019-02-17T08:38:03.552Z,40.63
2019-02-17T08:40:32.996Z,43.07
2019-02-17T08:43:02.415Z,44.70
2019-02-17T08:45:31.840Z,47.37
2019-02-17T08:48:04.064Z,40.83
2019-02-17T08:50:33.422Z,39.73
2019-02-17T08:53:04.832Z,40.20
2019-02-17T08:55:37.316Z,41.93
2019-02-17T08:58:08.444Z,43.40
2019-02-17T09:00:38.164Z,39.77
2019-02-17T09:03:07.482Z,41.10
2019-02-17T09:05:43.811Z,36.50
2019-02-17T09:08:07.912Z,37.90
2019-02-17T09:10:37.253Z,36.80
2019-02-17T09:13:06.549Z,37.33
2019-02-17T09:15:35.961Z,45.53
2019-02-17T09:18:05.443Z,32.33
2019-02-17T09:20:34.853Z,38.67
2019-02-17T09:23:04.266Z,32.50
2019-02-17T09:25:36.298Z,39.37
2019-02-17T09:28:20.264Z,39.33
2019-02-17T09:30:52.348Z,35.70
2019-02-17T09:33:33.580Z,36.83
2019-02-17T09:36:05.910Z,39.63
2019-02-17T09:38:37.248Z,36.53
2019-02-17T09:41:06.690Z,38.77
2019-02-17T09:43:36.105Z,39.87
2019-02-17T09:46:05.399Z,38.00
2019-02-17T09:48:34.713Z,36.43
2019-02-17T09:51:04.016Z,33.13
2019-02-17T09:53:34.410Z,39.40
2019-02-17T09:56:03.813Z,36.93
2019-02-17T09:58:33.167Z,34.50
2019-02-17T10:01:02.552Z,32.30
2019-02-17T10:03:31.852Z,35.27
2019-02-17T10:06:02.424Z,35.97
2019-02-17T10:08:31.720Z,31.00
2019-02-17T10:11:01.021Z,35.67
2019-02-17T10:13:30.476Z,33.53
2019-02-17T10:16:00.606Z,42.97
2019-02-17T10:18:30.037Z,36.50
2019-02-17T10:20:59.358Z,33.97
2019-02-17T10:23:28.652Z,30.90
2019-02-17T10:25:59.702Z,37.13
2019-02-17T10:28:41.882Z,30.67
2019-02-17T10:31:02.777Z,29.93
2019-02-17T10:33:32.082Z,34.93
2019-02-17T10:36:04.502Z,31.03
2019-02-17T10:38:33.903Z,31.73
2019-02-17T10:41:06.002Z,33.67
2019-02-17T10:43:35.401Z,28.97
2019-02-17T10:46:07.465Z,30.87
2019-02-17T10:48:36.901Z,36.70
2019-02-17T10:51:06.271Z,35.23
2019-02-17T10:53:35.692Z,33.83
2019-02-17T10:56:05.661Z,34.87
2019-02-17T10:58:35.108Z,31.77
2019-02-17T11:01:04.736Z,31.33
2019-02-17T11:03:34.032Z,35.63
2019-02-17T11:06:06.246Z,31.93
2019-02-17T11:08:35.587Z,33.80
2019-02-17T11:11:13.930Z,29.53
2019-02-17T11:13:43.201Z,27.23
2019-02-17T11:16:14.198Z,31.93
2019-02-17T11:18:43.499Z,29.73
2019-02-17T11:21:12.862Z,31.70
2019-02-17T11:23:42.063Z,31.97
2019-02-17T11:26:11.436Z,33.40
2019-02-17T11:28:42.712Z,32.67
2019-02-17T11:31:11.806Z,30.20
2019-02-17T11:33:41.160Z,28.37
2019-02-17T11:36:10.630Z,34.80
2019-02-17T11:38:39.961Z,28.17
2019-02-17T11:41:09.230Z,28.20
2019-02-17T11:43:38.602Z,29.37
2019-02-17T11:46:08.141Z,27.70
2019-02-17T11:48:37.544Z,30.63
2019-02-17T11:51:06.923Z,30.57
2019-02-17T11:53:36.221Z,32.30
2019-02-17T11:56:05.744Z,29.43
2019-02-17T11:58:35.130Z,29.10
2019-02-17T12:01:05.352Z,32.90
2019-02-17T12:03:35.061Z,31.33
2019-02-17T12:06:04.525Z,31.60
2019-02-17T12:08:33.966Z,30.13
2019-02-17T12:11:03.393Z,32.00
2019-02-17T12:13:32.772Z,30.97
2019-02-17T12:16:03.093Z,34.00
2019-02-17T12:18:32.574Z,27.63
2019-02-17T12:21:09.378Z,32.40
2019-02-17T12:23:44.570Z,37.63
2019-02-17T12:26:25.718Z,30.10
2019-02-17T12:29:28.479Z,34.43
2019-02-17T12:31:57.971Z,29.97
2019-02-17T12:34:27.427Z,28.13
2019-02-17T12:36:59.807Z,38.10
2019-02-17T12:39:29.446Z,30.70
2019-02-17T12:41:58.876Z,31.90
2019-02-17T12:44:28.246Z,26.63
2019-02-17T12:46:59.231Z,34.43
2019-02-17T12:49:30.974Z,28.33
2019-02-17T12:52:02.662Z,31.17
2019-02-17T12:54:32.067Z,35.97
2019-02-17T12:57:01.538Z,28.80
2019-02-17T12:59:31.050Z,30.03
2019-02-17T13:02:05.475Z,31.33
2019-02-17T13:04:34.872Z,30.97
2019-02-17T13:07:04.210Z,34.27
2019-02-17T13:09:33.739Z,27.93
2019-02-17T13:12:05.894Z,27.87
2019-02-17T13:14:35.247Z,36.93
2019-02-17T13:17:04.609Z,30.23
2019-02-17T13:19:33.916Z,32.87
2019-02-17T13:22:06.208Z,31.40
2019-02-17T13:24:35.522Z,29.23
2019-02-17T13:27:04.803Z,31.93
2019-02-17T13:29:34.152Z,30.93
2019-02-17T13:32:06.336Z,32.00
2019-02-17T13:34:36.973Z,27.47
2019-02-17T13:37:06.268Z,34.57
2019-02-17T13:39:35.586Z,27.30
2019-02-17T13:42:07.722Z,31.40
2019-02-17T13:44:38.180Z,38.10
2019-02-17T13:47:08.826Z,29.93
2019-02-17T13:49:38.220Z,27.77
2019-02-17T13:52:07.624Z,27.70
2019-02-17T13:54:36.921Z,29.60
2019-02-17T13:57:06.696Z,30.20
2019-02-17T13:59:36.034Z,31.03
2019-02-17T14:02:08.220Z,24.10
2019-02-17T14:04:37.733Z,27.93
2019-02-17T14:07:07.842Z,25.97
2019-02-17T14:09:38.746Z,30.15
2019-02-17T14:12:14.528Z,28.70
2019-02-17T14:14:44.028Z,24.37
2019-02-17T14:17:13.431Z,25.00
2019-02-17T14:19:43.115Z,25.40
2019-02-17T14:22:12.462Z,24.90
2019-02-17T14:24:42.537Z,23.47
2019-02-17T14:27:11.946Z,25.17
2019-02-17T14:29:41.269Z,19.67
2019-02-17T14:32:14.543Z,23.20
2019-02-17T14:34:45.913Z,21.13
2019-02-17T14:37:15.174Z,21.57
2019-02-17T14:39:44.790Z,19.17
2019-02-17T14:42:14.195Z,21.77
2019-02-17T14:44:43.520Z,29.53
2019-02-17T14:47:12.874Z,22.13
2019-02-17T14:49:42.535Z,21.27
2019-02-17T14:52:11.906Z,25.83
2019-02-17T14:54:42.673Z,20.97
2019-02-17T14:57:13.421Z,23.10
2019-02-17T14:59:42.805Z,19.97
2019-02-17T15:02:12.283Z,20.97
2019-02-17T15:04:41.599Z,19.17
2019-02-17T15:07:12.058Z,24.00
2019-02-17T15:09:41.565Z,20.60
2019-02-17T15:12:21.969Z,18.97
2019-02-17T15:14:51.389Z,22.63
2019-02-17T15:18:01.466Z,21.47
2019-02-17T15:20:35.495Z,20.80
2019-02-17T15:23:20.985Z,21.43
2019-02-17T15:25:53.721Z,24.90
2019-02-17T15:28:23.279Z,22.53
2019-02-17T15:30:52.721Z,20.77
2019-02-17T15:33:22.308Z,20.77
2019-02-17T15:35:54.353Z,18.90
2019-02-17T15:38:23.783Z,20.97
2019-02-17T15:40:53.006Z,23.27
2019-02-17T15:43:23.261Z,21.17
2019-02-17T15:45:53.157Z,20.20
2019-02-17T15:48:22.482Z,20.40
2019-02-17T15:50:51.835Z,20.60
2019-02-17T15:53:21.902Z,19.67
2019-02-17T15:55:51.611Z,20.30
2019-02-17T15:58:21.015Z,21.90
2019-02-17T16:00:50.384Z,23.77
2019-02-17T16:03:20.129Z,20.70
2019-02-17T16:05:49.583Z,25.20
2019-02-17T16:08:19.147Z,23.83
2019-02-17T16:10:49.439Z,22.17
2019-02-17T16:13:18.848Z,21.53
2019-02-17T16:15:48.310Z,23.10
2019-02-17T16:18:17.944Z,22.15
2019-02-17T16:20:47.306Z,19.27
2019-02-17T16:23:16.778Z,22.27
2019-02-17T16:25:46.147Z,23.37
2019-02-17T16:28:15.987Z,23.63
2019-02-17T16:30:45.303Z,21.67
2019-02-17T16:33:14.709Z,21.40
2019-02-17T16:35:44.106Z,20.30
2019-02-17T16:38:18.472Z,18.40
2019-02-17T16:40:48.026Z,22.50
2019-02-17T16:43:17.399Z,21.80
2019-02-17T16:45:46.758Z,17.50
2019-02-17T16:48:16.134Z,21.73
2019-02-17T16:50:50.321Z,15.93
2019-02-17T16:53:20.776Z,16.53
2019-02-17T16:55:50.292Z,18.70
2019-02-17T16:58:19.747Z,19.03
2019-02-17T17:00:49.194Z,19.73
2019-02-17T17:03:18.681Z,20.83
2019-02-17T17:05:48.102Z,15.53
2019-02-17T17:08:21.280Z,21.00
2019-02-17T17:10:50.770Z,19.57
2019-02-17T17:13:20.105Z,21.00
2019-02-17T17:15:49.492Z,18.40
2019-02-17T17:18:18.925Z,18.57
2019-02-17T17:20:48.308Z,17.30
2019-02-17T17:23:17.649Z,18.30
2019-02-17T17:25:47.083Z,17.27
2019-02-17T17:28:16.485Z,17.57
2019-02-17T17:30:47.301Z,16.80
2019-02-17T17:33:16.664Z,16.40
2019-02-17T17:35:46.063Z,16.77
2019-02-17T17:38:18.472Z,16.67
2019-02-17T17:40:48.080Z,19.63
2019-02-17T17:43:17.595Z,19.00
2019-02-17T17:45:49.763Z,16.67
2019-02-17T17:48:19.315Z,18.63
2019-02-17T17:50:48.778Z,12.77
2019-02-17T17:53:18.166Z,16.07
2019-02-17T17:55:47.571Z,16.97
2019-02-17T17:58:17.002Z,17.97
2019-02-17T18:00:46.343Z,16.83
2019-02-17T18:03:15.784Z,19.07
2019-02-17T18:05:45.170Z,18.13
2019-02-17T18:08:14.702Z,17.00
2019-02-17T18:10:44.074Z,16.47
2019-02-17T18:13:14.052Z,15.70
2019-02-17T18:15:43.368Z,16.37
2019-02-17T18:18:12.833Z,26.07
2019-02-17T18:20:42.202Z,19.20
2019-02-17T18:23:11.505Z,17.53
2019-02-17T18:25:40.853Z,20.07
2019-02-17T18:28:10.208Z,15.53
2019-02-17T18:30:39.536Z,14.20
2019-02-17T18:33:08.912Z,18.60
2019-02-17T18:35:38.257Z,17.60
2019-02-17T18:38:09.926Z,16.23
2019-02-17T18:40:46.066Z,21.23
2019-02-17T18:43:10.204Z,20.03
2019-02-17T18:45:39.548Z,18.13
2019-02-17T18:48:13.642Z,16.17
2019-02-17T18:50:43.061Z,16.53
2019-02-17T18:53:12.368Z,15.70
2019-02-17T18:55:41.923Z,17.30
2019-02-17T18:58:11.329Z,15.60
2019-02-17T19:00:42.932Z,15.70
2019-02-17T19:03:12.279Z,14.30
2019-02-17T19:05:41.562Z,17.17
2019-02-17T19:08:10.877Z,14.43
2019-02-17T19:10:40.160Z,15.60
2019-02-17T19:13:09.457Z,15.23
2019-02-17T19:15:38.740Z,14.73
2019-02-17T19:18:10.912Z,15.73
2019-02-17T19:20:40.487Z,14.73
2019-02-17T19:23:13.698Z,14.87
2019-02-17T19:25:43.060Z,17.10
2019-02-17T19:28:15.286Z,17.03
2019-02-17T19:30:44.582Z,15.07
2019-02-17T19:33:14.042Z,20.53
2019-02-17T19:35:43.453Z,15.57
2019-02-17T19:38:13.818Z,15.20
2019-02-17T19:40:43.219Z,17.17
2019-02-17T19:43:12.518Z,13.57
2019-02-17T19:45:41.851Z,13.07
2019-02-17T19:48:11.245Z,15.70
2019-02-17T19:50:40.630Z,16.13
2019-02-17T19:53:09.931Z,15.50
2019-02-17T19:55:39.341Z,15.83
2019-02-17T19:58:11.730Z,11.57
2019-02-17T20:00:40.955Z,17.77
2019-02-17T20:03:27.801Z,17.20
2019-02-17T20:05:59.484Z,15.83
2019-02-17T20:08:28.834Z,15.13
2019-02-17T20:10:58.223Z,15.57
2019-02-17T20:13:30.232Z,16.43
2019-02-17T20:15:59.673Z,14.03
2019-02-17T20:18:29.000Z,17.30
2019-02-17T20:21:00.085Z,13.67
2019-02-17T20:23:30.775Z,16.27
2019-02-17T20:26:00.299Z,14.87
2019-02-17T20:28:42.686Z,15.73
2019-02-17T20:31:03.506Z,16.77
2019-02-17T20:33:32.944Z,14.90
2019-02-17T20:36:03.105Z,14.33
2019-02-17T20:38:32.674Z,15.77
2019-02-17T20:41:01.929Z,12.17
2019-02-17T20:43:31.260Z,14.77
2019-02-17T20:46:00.695Z,14.23
2019-02-17T20:48:31.050Z,15.73
2019-02-17T20:51:00.469Z,14.37
2019-02-17T20:53:29.776Z,14.90
2019-02-17T20:55:59.010Z,14.73
2019-02-17T20:58:30.790Z,13.73
2019-02-17T21:01:01.020Z,16.63
2019-02-17T21:03:30.316Z,17.97
2019-02-17T21:05:59.659Z,16.77
2019-02-17T21:08:32.008Z,14.80
2019-02-17T21:11:01.419Z,13.77
2019-02-17T21:13:31.709Z,13.37
2019-02-17T21:16:00.931Z,14.57
2019-02-17T21:18:30.265Z,14.33
2019-02-17T21:20:59.649Z,14.13
2019-02-17T21:23:28.951Z,15.53
2019-02-17T21:25:58.312Z,17.80
2019-02-17T21:28:28.880Z,16.43
2019-02-17T21:30:58.129Z,15.70
2019-02-17T21:33:27.527Z,16.10
2019-02-17T21:35:57.052Z,17.43
2019-02-17T21:38:26.382Z,16.83
2019-02-17T21:40:55.704Z,15.60
2019-02-17T21:43:24.957Z,13.13
2019-02-17T21:45:54.315Z,18.57
2019-02-17T21:48:23.617Z,17.33
2019-02-17T21:50:52.950Z,16.62
2019-02-17T21:53:25.018Z,16.60
2019-02-17T21:55:54.301Z,15.97
2019-02-17T21:58:23.601Z,16.97
2019-02-17T22:00:52.941Z,20.37
2019-02-17T22:03:22.140Z,16.93
2019-02-17T22:05:51.427Z,24.57
2019-02-17T22:08:22.149Z,16.97
2019-02-17T22:10:51.433Z,15.50
2019-02-17T22:13:23.252Z,15.80
2019-02-17T22:15:52.675Z,18.20
2019-02-17T22:18:22.017Z,19.83
2019-02-17T22:20:51.319Z,14.77
2019-02-17T22:23:20.760Z,17.40
2019-02-17T22:25:50.194Z,18.27
2019-02-17T22:28:19.543Z,18.77
2019-02-17T22:30:48.999Z,16.47
2019-02-17T22:33:18.378Z,18.63
2019-02-17T22:35:47.977Z,18.77
2019-02-17T22:38:20.340Z,18.50
2019-02-17T22:41:01.377Z,18.67
2019-02-17T22:43:34.483Z,14.70
2019-02-17T22:46:09.698Z,19.17
2019-02-17T22:48:48.230Z,16.73
2019-02-17T22:51:30.112Z,15.57
2019-02-17T22:53:59.477Z,18.43
2019-02-17T22:56:28.748Z,18.10
2019-02-17T22:58:57.980Z,17.07
2019-02-17T23:01:30.950Z,21.17
2019-02-17T23:04:00.261Z,18.47
2019-02-17T23:06:31.135Z,19.80
2019-02-17T23:09:00.379Z,16.97
2019-02-17T23:11:29.678Z,17.83
2019-02-17T23:13:58.992Z,18.13
2019-02-17T23:16:28.485Z,21.90
2019-02-17T23:18:58.114Z,21.70
2019-02-17T23:21:27.394Z,19.13
2019-02-17T23:23:56.702Z,18.43
2019-02-17T23:26:26.187Z,19.73
2019-02-17T23:28:55.967Z,19.73
2019-02-17T23:31:25.338Z,17.27
2019-02-17T23:33:54.673Z,17.47
2019-02-17T23:36:24.389Z,22.07
2019-02-17T23:38:54.000Z,19.63
2019-02-17T23:41:23.466Z,20.47
2019-02-17T23:43:52.663Z,21.93
2019-02-17T23:46:22.701Z,19.70
2019-02-17T23:48:52.016Z,19.00
2019-02-17T23:51:21.620Z,19.23
2019-02-17T23:53:50.962Z,16.97
2019-02-17T23:56:20.542Z,19.73
2019-02-17T23:58:49.724Z,24.00
